Main page
METAR-TAF:

METAR-TAF

Airports :

Wick Airport

Wick, Scotland

latitude: 58-27N, longitude: 003-05W, elevation: 39 m

Current weather observation

The report was made 18 minutes ago, at 21:50 UTC
Wind 6 kt from the West
Temperature 0°C
Humidity 86%
Pressure 994 hPa
Visibility 10 km or more
(light) freezing, rain

METAR: EGPC 222150Z AUTO 26006KT 9999 -FZRA NCD M00/M02 Q0994

Time: 22:08 (22:08 UTC)

Forecast

The report was made 2 hours and 12 minutes ago, at 19:56 UTC
Forecast valid from 22 at 21 UTC to 23 at 06 UTC
Wind 9 kt from the West
Visibility 10 km or more
Few clouds at a height of 1500 ft
Probability 30% :
Temporary
from 22 at 21 UTC to 23 at 06 UTC
Visibility: 4000 m
Broken clouds at a height of 1200 ft, Cumulonimbus.
rain showers, snow, light snow showers

TAF: EGPC 221956Z 2221/2306 27009KT 9999 FEW015 PROB30 TEMPO 2221/2306 4000 SHRASN -SHSN BKN012CB

Weather observations and forecasts of more than 4000 airports (METAR and TAF reports).

The available stations are represented by yellow and red dots on the map.

Hover mouse over dot to see the name of the station.

Then click to see weather observations and forecasts.

To change the map : click on the green buttons with a black cross to zoom in, on the green button with a dash to zoom out, or on the green arrows for adjacent maps.


METAR-TAF: